createdAt,value
2023-04-12T00:00:19.871Z,98703.94
2023-04-12T00:01:24.454Z,98695.16
2023-04-12T00:02:28.881Z,98699.69
2023-04-12T00:03:38.805Z,98689.66
2023-04-12T00:04:43.688Z,98702.31
2023-04-12T00:05:49.036Z,98689.47
2023-04-12T00:06:54.717Z,98701.25
2023-04-12T00:08:04.234Z,98699.44
2023-04-12T00:09:09.088Z,98700.06
2023-04-12T00:10:14.307Z,98701.75
2023-04-12T00:11:19.241Z,98706.09
2023-04-12T00:12:24.579Z,98706.22
2023-04-12T00:13:31.185Z,98701.47
2023-04-12T00:14:36.092Z,98697.16
2023-04-12T00:15:41.002Z,98693.66
2023-04-12T00:16:48.228Z,98696.78
2023-04-12T00:17:52.795Z,98696.78
2023-04-12T00:18:57.774Z,98695.81
2023-04-12T00:20:06.574Z,98700.94
2023-04-12T00:21:12.009Z,98692.13
2023-04-12T00:22:17.054Z,98696.81
2023-04-12T00:23:21.311Z,98696.53
2023-04-12T00:24:27.036Z,98702.91
2023-04-12T00:25:31.580Z,98691.97
2023-04-12T00:26:39.371Z,98689.53
2023-04-12T00:27:43.672Z,98688.19
2023-04-12T00:28:48.520Z,98696.38
2023-04-12T00:29:53.763Z,98688.63
2023-04-12T00:30:59.283Z,98691.66
2023-04-12T00:32:06.037Z,98690.72
2023-04-12T00:33:11.183Z,98690.91
2023-04-12T00:34:16.325Z,98695.06
2023-04-12T00:35:20.638Z,98690.63
2023-04-12T00:36:25.628Z,98689.66
2023-04-12T00:37:30.893Z,98687.00
2023-04-12T00:38:39.990Z,98694.44
2023-04-12T00:39:44.819Z,98685.53
2023-04-12T00:40:49.344Z,98694.72
2023-04-12T00:41:53.857Z,98689.31
2023-04-12T00:42:58.162Z,98695.84
2023-04-12T00:44:02.961Z,98688.63
2023-04-12T00:45:08.621Z,98685.56
2023-04-12T00:46:20.015Z,98692.47
2023-04-12T00:47:25.676Z,98691.50
2023-04-12T00:48:32.448Z,98695.34
2023-04-12T00:49:39.663Z,98685.47
2023-04-12T00:50:47.806Z,98692.25
2023-04-12T00:51:53.325Z,98679.50
2023-04-12T00:52:59.571Z,98687.06
2023-04-12T00:54:04.545Z,98680.69
2023-04-12T00:55:10.741Z,98684.56
2023-04-12T00:56:19.434Z,98686.91
2023-04-12T00:57:23.861Z,98685.94
2023-04-12T00:58:28.477Z,98682.44
2023-04-12T00:59:33.243Z,98683.50
2023-04-12T01:00:37.429Z,98685.81
2023-04-12T01:01:42.076Z,98681.16
2023-04-12T01:02:50.805Z,98684.13
2023-04-12T01:04:01.483Z,98685.81
2023-04-12T01:05:07.945Z,98690.72
2023-04-12T01:06:42.212Z,98685.22
2023-04-12T01:08:24.033Z,98685.81
2023-04-12T01:10:02.554Z,98687.25
2023-04-12T01:11:46.062Z,98680.28
2023-04-12T01:13:20.988Z,98688.06
2023-04-12T01:14:55.944Z,98693.13
2023-04-12T01:16:56.033Z,98688.06
2023-04-12T01:18:08.846Z,98686.81
2023-04-12T01:19:35.257Z,98685.13
2023-04-12T01:21:11.107Z,98686.41
2023-04-12T01:22:59.158Z,98695.06
2023-04-12T01:24:42.571Z,98684.72
2023-04-12T01:26:26.829Z,98686.41
2023-04-12T01:27:50.788Z,98690.13
2023-04-12T01:28:57.936Z,98685.56
2023-04-12T01:30:05.333Z,98684.72
2023-04-12T01:31:13.437Z,98685.03
2023-04-12T01:32:19.793Z,98681.66
2023-04-12T01:33:32.102Z,98681.91
2023-04-12T01:34:38.766Z,98682.28
2023-04-12T01:35:45.143Z,98678.78
2023-04-12T01:36:52.674Z,98679.44
2023-04-12T01:37:59.436Z,98683.91
2023-04-12T01:39:11.233Z,98675.84
2023-04-12T01:40:20.472Z,98674.28
2023-04-12T01:41:25.680Z,98681.25
2023-04-12T01:42:30.085Z,98676.91
2023-04-12T01:43:43.831Z,98679.44
2023-04-12T01:44:50.546Z,98679.28
2023-04-12T01:45:56.060Z,98678.50
2023-04-12T01:47:01.145Z,98682.47
2023-04-12T01:48:09.311Z,98688.19
2023-04-12T01:49:16.839Z,98688.06
2023-04-12T01:50:35.976Z,98687.94
2023-04-12T01:52:13.108Z,98699.38
2023-04-12T01:53:35.118Z,98691.34
2023-04-12T01:54:44.933Z,98693.25
2023-04-12T01:56:00.290Z,98692.41
2023-04-12T01:57:08.802Z,98691.78
2023-04-12T01:58:17.291Z,98691.47
2023-04-12T01:59:27.340Z,98687.34
2023-04-12T02:00:36.040Z,98683.50
2023-04-12T02:01:43.575Z,98690.41
2023-04-12T02:02:48.916Z,98690.28
2023-04-12T02:03:54.899Z,98695.78
2023-04-12T02:05:02.199Z,98691.25
2023-04-12T02:06:09.345Z,98687.84
2023-04-12T02:07:19.238Z,98686.78
2023-04-12T02:08:24.665Z,98691.66
2023-04-12T02:09:28.908Z,98680.97
2023-04-12T02:10:36.774Z,98687.84
2023-04-12T02:11:42.113Z,98687.75
2023-04-12T02:12:46.561Z,98685.72
2023-04-12T02:13:50.617Z,98688.25
2023-04-12T02:14:55.242Z,98693.03
2023-04-12T02:16:02.465Z,98689.22
2023-04-12T02:17:08.917Z,98689.22
2023-04-12T02:18:14.718Z,98695.25
2023-04-12T02:19:19.891Z,98693.47
2023-04-12T02:20:26.492Z,98689.75
2023-04-12T02:21:44.173Z,98698.34
2023-04-12T02:22:48.713Z,98686.06
2023-04-12T02:23:56.593Z,98688.59
2023-04-12T02:25:08.276Z,98691.25
2023-04-12T02:26:18.640Z,98689.84
2023-04-12T02:27:23.122Z,98696.00
2023-04-12T02:28:27.900Z,98698.41
2023-04-12T02:29:32.090Z,98694.91
2023-04-12T02:30:36.035Z,98701.41
2023-04-12T02:31:40.755Z,98693.53
2023-04-12T02:32:46.137Z,98699.06
2023-04-12T02:33:50.929Z,98692.09
2023-04-12T02:34:55.629Z,98697.56
2023-04-12T02:36:02.942Z,98693.25
2023-04-12T02:37:09.512Z,98696.13
2023-04-12T02:38:13.921Z,98689.88
2023-04-12T02:39:22.468Z,98695.28
2023-04-12T02:40:28.008Z,98698.75
2023-04-12T02:41:32.476Z,98695.69
2023-04-12T02:42:40.391Z,98701.22
2023-04-12T02:43:46.673Z,98693.47
2023-04-12T02:44:52.919Z,98694.75
2023-04-12T02:45:57.287Z,98691.78
2023-04-12T02:47:01.977Z,98695.28
2023-04-12T02:48:06.706Z,98692.31
2023-04-12T02:49:11.689Z,98691.56
2023-04-12T02:50:18.663Z,98696.22
2023-04-12T02:51:23.533Z,98694.31
2023-04-12T02:52:30.448Z,98699.19
2023-04-12T02:53:35.005Z,98689.25
2023-04-12T02:54:39.736Z,98689.44
2023-04-12T02:55:44.944Z,98697.19
2023-04-12T02:56:49.069Z,98695.94
2023-04-12T02:57:55.225Z,98698.47
2023-04-12T02:58:59.603Z,98698.03
2023-04-12T03:00:16.851Z,98700.06
2023-04-12T03:01:21.565Z,98691.34
2023-04-12T03:02:27.176Z,98691.47
2023-04-12T03:03:33.100Z,98699.22
2023-04-12T03:04:40.685Z,98688.63
2023-04-12T03:05:47.550Z,98694.78
2023-04-12T03:06:55.214Z,98690.81
2023-04-12T03:08:01.192Z,98686.91
2023-04-12T03:09:06.021Z,98697.38
2023-04-12T03:10:21.479Z,98690.41
2023-04-12T03:11:29.065Z,98696.88
2023-04-12T03:12:36.610Z,98697.81
2023-04-12T03:13:44.016Z,98690.09
2023-04-12T03:14:51.104Z,98696.88
2023-04-12T03:16:04.492Z,98694.75
2023-04-12T03:17:16.480Z,98688.31
2023-04-12T03:18:25.276Z,98692.50
2023-04-12T03:19:33.514Z,98690.72
2023-04-12T03:20:47.489Z,98690.94
2023-04-12T03:21:52.858Z,98687.75
2023-04-12T03:22:59.954Z,98692.09
2023-04-12T03:24:05.595Z,98696.00
2023-04-12T03:25:13.344Z,98699.84
2023-04-12T03:26:21.378Z,98686.38
2023-04-12T03:27:28.173Z,98693.28
2023-04-12T03:28:35.639Z,98696.66
2023-04-12T03:29:48.752Z,98680.25
2023-04-12T03:31:06.774Z,98693.38
2023-04-12T03:32:15.370Z,98694.31
2023-04-12T03:33:22.554Z,98690.72
2023-04-12T03:34:33.368Z,98698.88
2023-04-12T03:35:38.261Z,98700.03
2023-04-12T03:36:42.977Z,98694.25
2023-04-12T03:37:48.619Z,98694.31
2023-04-12T03:38:54.384Z,98694.25
2023-04-12T03:40:12.876Z,98693.47
2023-04-12T03:41:18.995Z,98696.03
2023-04-12T03:42:33.587Z,98696.66
2023-04-12T03:43:39.923Z,98699.94
2023-04-12T03:44:52.321Z,98691.25
2023-04-12T03:46:02.259Z,98697.31
2023-04-12T03:47:12.743Z,98695.59
2023-04-12T03:48:19.809Z,98697.19
2023-04-12T03:49:39.662Z,98694.31
2023-04-12T03:50:48.767Z,98699.41
2023-04-12T03:51:57.983Z,98699.72
2023-04-12T03:53:04.008Z,98695.94
2023-04-12T03:54:21.605Z,98691.78
2023-04-12T03:55:30.239Z,98702.59
2023-04-12T03:56:40.059Z,98696.34
2023-04-12T03:57:58.755Z,98696.88
2023-04-12T03:59:09.458Z,98699.59
2023-04-12T04:00:37.082Z,98693.28
2023-04-12T04:02:03.494Z,98704.06
2023-04-12T04:03:19.712Z,98700.44
2023-04-12T04:04:32.092Z,98707.34
2023-04-12T04:05:37.464Z,98701.09
2023-04-12T04:06:45.495Z,98706.09
2023-04-12T04:07:50.034Z,98694.31
2023-04-12T04:08:56.825Z,98698.75
2023-04-12T04:10:02.852Z,98699.84
2023-04-12T04:11:09.905Z,98702.78
2023-04-12T04:12:20.190Z,98689.25
2023-04-12T04:13:26.389Z,98699.63
2023-04-12T04:14:49.693Z,98695.69
2023-04-12T04:16:11.714Z,98692.75
2023-04-12T04:17:21.071Z,98696.22
2023-04-12T04:18:25.490Z,98692.84
2023-04-12T04:19:31.905Z,98702.38
2023-04-12T04:20:41.673Z,98696.53
2023-04-12T04:21:50.438Z,98695.50
2023-04-12T04:23:04.944Z,98699.00
2023-04-12T04:24:13.742Z,98695.38
2023-04-12T04:25:42.628Z,98698.47
2023-04-12T04:26:55.356Z,98689.03
2023-04-12T04:28:11.763Z,98699.00
2023-04-12T04:29:16.549Z,98696.97
2023-04-12T04:30:23.584Z,98709.56
2023-04-12T04:31:39.105Z,98701.94
2023-04-12T04:33:03.448Z,98707.00
2023-04-12T04:34:53.522Z,98710.19
2023-04-12T04:36:02.402Z,98710.94
2023-04-12T04:37:19.054Z,98710.94
2023-04-12T04:38:37.606Z,98712.66
2023-04-12T04:39:41.781Z,98708.50
2023-04-12T04:40:46.662Z,98711.69
2023-04-12T04:41:55.183Z,98713.91
2023-04-12T04:43:18.860Z,98719.31
2023-04-12T04:44:27.501Z,98712.22
2023-04-12T04:45:43.270Z,98708.09
2023-04-12T04:46:51.449Z,98717.59
2023-04-12T04:48:01.771Z,98714.34
2023-04-12T04:49:14.423Z,98712.94
2023-04-12T04:50:28.348Z,98717.81
2023-04-12T04:51:47.282Z,98718.25
2023-04-12T04:52:52.094Z,98717.50
2023-04-12T04:53:56.969Z,98724.78
2023-04-12T04:55:02.908Z,98716.84
2023-04-12T04:56:08.818Z,98720.38
2023-04-12T04:57:13.047Z,98725.13
2023-04-12T04:58:18.242Z,98718.66
2023-04-12T04:59:24.489Z,98725.75
2023-04-12T05:00:32.139Z,98716.75
2023-04-12T05:01:41.824Z,98726.06
2023-04-12T05:02:48.038Z,98725.97
2023-04-12T05:03:53.116Z,98729.44
2023-04-12T05:05:00.438Z,98709.25
2023-04-12T05:06:10.969Z,98720.78
2023-04-12T05:07:20.207Z,98726.91
2023-04-12T05:08:31.096Z,98729.44
2023-04-12T05:09:48.250Z,98724.38
2023-04-12T05:11:01.474Z,98731.78
2023-04-12T05:12:16.442Z,98718.09
2023-04-12T05:13:41.428Z,98730.59
2023-04-12T05:15:08.595Z,98725.41
2023-04-12T05:16:26.446Z,98724.38
2023-04-12T05:17:31.095Z,98720.78
2023-04-12T05:18:46.553Z,98717.59
2023-04-12T05:20:00.504Z,98729.22
2023-04-12T05:21:25.143Z,98730.19
2023-04-12T05:22:36.006Z,98730.84
2023-04-12T05:23:51.184Z,98725.03
2023-04-12T05:24:56.718Z,98723.34
2023-04-12T05:26:06.168Z,98729.34
2023-04-12T05:27:17.023Z,98717.81
2023-04-12T05:28:24.983Z,98726.50
2023-04-12T05:29:29.339Z,98725.34
2023-04-12T05:30:35.220Z,98727.88
2023-04-12T05:33:26.372Z,98734.97
2023-04-12T05:34:36.080Z,98738.34
2023-04-12T05:35:44.746Z,98737.06
2023-04-12T05:36:53.612Z,98732.44
2023-04-12T05:38:01.609Z,98730.72
2023-04-12T05:39:18.815Z,98732.22
2023-04-12T05:40:44.849Z,98739.41
2023-04-12T05:41:56.305Z,98743.84
2023-04-12T05:43:08.708Z,98740.25
2023-04-12T05:44:21.567Z,98740.13
2023-04-12T05:45:25.470Z,98745.25
2023-04-12T05:46:31.610Z,98743.00
2023-04-12T05:47:39.569Z,98740.13
2023-04-12T05:48:43.946Z,98745.13
2023-04-12T05:51:39.861Z,98742.59
2023-04-12T05:53:09.678Z,98743.00
2023-04-12T05:54:21.056Z,98743.66
2023-04-12T05:55:37.752Z,98746.81
2023-04-12T05:57:14.315Z,98741.09
2023-04-12T05:58:35.441Z,98730.94
2023-04-12T06:00:19.432Z,98737.38
2023-04-12T06:03:05.802Z,98733.06
2023-04-12T06:04:12.893Z,98739.31
2023-04-12T06:05:21.043Z,98732.31
2023-04-12T06:06:46.301Z,98736.44
2023-04-12T06:08:03.247Z,98736.44
2023-04-12T06:09:18.205Z,98734.53
2023-04-12T06:12:06.573Z,98730.50
2023-04-12T06:13:17.225Z,98734.09
2023-04-12T06:14:30.875Z,98732.97
2023-04-12T06:15:45.203Z,98732.53
2023-04-12T06:16:54.380Z,98740.25
2023-04-12T06:18:04.127Z,98736.47
2023-04-12T06:19:12.554Z,98736.34
2023-04-12T06:20:22.686Z,98729.69
2023-04-12T06:21:29.229Z,98734.13
2023-04-12T06:22:38.055Z,98733.91
2023-04-12T06:23:49.508Z,98732.94
2023-04-12T06:25:02.933Z,98730.09
2023-04-12T06:26:12.804Z,98728.19
2023-04-12T06:28:02.642Z,98727.66
2023-04-12T06:29:10.464Z,98726.91
2023-04-12T06:30:30.569Z,98715.91
2023-04-12T06:31:52.736Z,98723.63
2023-04-12T06:32:57.901Z,98723.31
2023-04-12T06:34:08.874Z,98728.47
2023-04-12T06:35:13.529Z,98730.50
2023-04-12T06:36:21.434Z,98723.41
2023-04-12T06:37:27.398Z,98718.63
2023-04-12T06:38:31.638Z,98716.94
2023-04-12T06:39:40.001Z,98716.44
2023-04-12T06:40:44.736Z,98726.91
2023-04-12T06:41:51.169Z,98714.41
2023-04-12T06:43:11.125Z,98718.84
2023-04-12T06:44:28.562Z,98727.41
2023-04-12T06:45:41.788Z,98725.84
2023-04-12T06:46:51.835Z,98725.00
2023-04-12T06:48:03.352Z,98724.88
2023-04-12T06:49:08.416Z,98716.09
2023-04-12T06:50:27.500Z,98721.63
2023-04-12T06:51:46.084Z,98722.66
2023-04-12T06:52:55.988Z,98723.84
2023-04-12T06:54:01.602Z,98728.06
2023-04-12T06:55:08.041Z,98725.22
2023-04-12T06:56:12.776Z,98719.09
2023-04-12T06:57:17.172Z,98721.19
2023-04-12T06:58:24.029Z,98717.16
2023-04-12T06:59:31.457Z,98716.22
2023-04-12T07:00:36.995Z,98715.25
2023-04-12T07:01:43.011Z,98722.66
2023-04-12T07:02:47.882Z,98722.66
2023-04-12T07:03:52.370Z,98724.16
2023-04-12T07:04:58.030Z,98724.88
2023-04-12T07:06:07.771Z,98724.56
2023-04-12T07:07:23.181Z,98720.22
2023-04-12T07:08:30.117Z,98718.00
2023-04-12T07:09:34.447Z,98727.03
2023-04-12T07:10:39.262Z,98717.47
2023-04-12T07:11:44.998Z,98720.84
2023-04-12T07:12:52.505Z,98722.09
2023-04-12T07:13:56.957Z,98726.56
2023-04-12T07:15:02.384Z,98721.59
2023-04-12T07:16:09.626Z,98713.13
2023-04-12T07:17:15.408Z,98723.25
2023-04-12T07:18:19.881Z,98719.66
2023-04-12T07:19:25.162Z,98720.03
2023-04-12T07:20:30.169Z,98723.25
2023-04-12T07:21:35.247Z,98719.44
2023-04-12T07:22:40.063Z,98722.81
2023-04-12T07:23:45.216Z,98726.25
2023-04-12T07:24:52.988Z,98719.03
2023-04-12T07:26:04.915Z,98730.88
2023-04-12T07:27:17.139Z,98727.59
2023-04-12T07:28:27.845Z,98733.28
2023-04-12T07:29:38.266Z,98732.16
2023-04-12T07:30:50.968Z,98729.00
2023-04-12T07:32:03.743Z,98731.53
2023-04-12T07:33:18.912Z,98722.19
2023-04-12T07:34:27.158Z,98735.72
2023-04-12T07:35:36.152Z,98731.41
2023-04-12T07:36:42.224Z,98728.41
2023-04-12T07:37:53.316Z,98732.66
2023-04-12T07:39:03.654Z,98732.97
2023-04-12T07:40:10.737Z,98732.97
2023-04-12T07:41:19.718Z,98726.41
2023-04-12T07:42:30.801Z,98736.47
2023-04-12T07:43:41.578Z,98728.94
2023-04-12T07:44:48.443Z,98734.66
2023-04-12T07:46:15.617Z,98729.16
2023-04-12T07:47:21.029Z,98731.50
2023-04-12T07:48:27.571Z,98734.78
2023-04-12T07:49:35.253Z,98728.31
2023-04-12T07:50:44.061Z,98729.31
2023-04-12T07:51:49.009Z,98726.44
2023-04-12T07:53:22.865Z,98725.72
2023-04-12T07:54:33.145Z,98730.81
2023-04-12T07:55:40.706Z,98722.94
2023-04-12T07:57:06.290Z,98724.44
2023-04-12T07:58:17.915Z,98724.84
2023-04-12T07:59:29.462Z,98725.34
2023-04-12T08:00:36.037Z,98725.44
2023-04-12T08:01:52.632Z,98724.09
2023-04-12T08:03:08.253Z,98724.09
2023-04-12T08:04:13.061Z,98719.25
2023-04-12T08:05:21.042Z,98716.66
2023-04-12T08:06:31.681Z,98723.53
2023-04-12T08:08:04.341Z,98724.84
2023-04-12T08:09:12.159Z,98723.88
2023-04-12T08:10:17.896Z,98719.25
2023-04-12T08:11:43.620Z,98721.44
2023-04-12T08:12:54.827Z,98722.81
2023-04-12T08:13:58.956Z,98724.50
2023-04-12T08:15:08.873Z,98718.94
2023-04-12T08:16:16.625Z,98720.88
2023-04-12T08:17:29.724Z,98725.22
2023-04-12T08:18:34.047Z,98721.84
2023-04-12T08:19:42.638Z,98725.22
2023-04-12T08:20:47.444Z,98722.25
2023-04-12T08:21:52.485Z,98725.72
2023-04-12T08:23:05.314Z,98721.28
2023-04-12T08:24:10.357Z,98723.47
2023-04-12T08:25:17.628Z,98715.03
2023-04-12T08:26:23.623Z,98719.25
2023-04-12T08:27:31.041Z,98718.97
2023-04-12T08:28:38.453Z,98716.19
2023-04-12T08:29:59.755Z,98709.50
2023-04-12T08:31:08.230Z,98712.78
2023-04-12T08:32:15.807Z,98715.69
2023-04-12T08:33:26.115Z,98714.69
2023-04-12T08:34:33.343Z,98710.69
2023-04-12T08:35:47.230Z,98710.13
2023-04-12T08:37:00.833Z,98709.19
2023-04-12T08:38:10.917Z,98705.56
2023-04-12T08:39:32.179Z,98706.69
2023-04-12T08:40:52.528Z,98707.69
2023-04-12T08:42:03.020Z,98701.31
2023-04-12T08:43:16.609Z,98706.50
2023-04-12T08:44:45.742Z,98697.69
2023-04-12T08:46:04.608Z,98701.19
2023-04-12T08:47:16.234Z,98699.28
2023-04-12T08:48:26.572Z,98703.53
2023-04-12T08:50:00.290Z,98699.78
2023-04-12T08:51:21.238Z,98696.53
2023-04-12T08:52:25.297Z,98706.53
2023-04-12T08:53:29.836Z,98706.66
2023-04-12T08:54:41.021Z,98695.31
2023-04-12T08:56:12.398Z,98699.84
2023-04-12T08:57:19.207Z,98698.25
2023-04-12T08:58:25.231Z,98699.94
2023-04-12T08:59:31.684Z,98686.16
2023-04-12T09:00:38.564Z,98697.50
2023-04-12T09:01:46.580Z,98686.72
2023-04-12T09:02:51.989Z,98686.84
2023-04-12T09:03:58.094Z,98690.06
2023-04-12T09:05:02.910Z,98689.81
2023-04-12T09:06:08.106Z,98689.16
2023-04-12T09:07:33.508Z,98691.28
2023-04-12T09:09:04.953Z,98683.03
2023-04-12T09:10:42.359Z,98677.84
2023-04-12T09:11:46.426Z,98679.44
2023-04-12T09:12:54.921Z,98681.91
2023-04-12T09:14:03.257Z,98679.66
2023-04-12T09:15:18.430Z,98679.72
2023-04-12T09:16:47.232Z,98678.88
2023-04-12T09:18:16.737Z,98674.56
2023-04-12T09:19:39.818Z,98672.09
2023-04-12T09:20:47.878Z,98667.75
2023-04-12T09:22:02.684Z,98670.00
2023-04-12T09:23:26.488Z,98672.59
2023-04-12T09:24:48.870Z,98676.72
2023-04-12T09:25:59.034Z,98674.53
2023-04-12T09:27:25.326Z,98666.72
2023-04-12T09:28:34.370Z,98668.72
2023-04-12T09:29:38.806Z,98665.50
2023-04-12T09:30:43.404Z,98657.53
2023-04-12T09:32:00.189Z,98656.84
2023-04-12T09:33:13.899Z,98653.69
2023-04-12T09:34:31.968Z,98656.81
2023-04-12T09:35:36.765Z,98650.09
2023-04-12T09:36:42.087Z,98648.69
2023-04-12T09:37:46.377Z,98649.56
2023-04-12T09:39:05.000Z,98650.25
2023-04-12T09:40:11.260Z,98644.91
2023-04-12T09:41:26.920Z,98654.03
2023-04-12T09:42:50.206Z,98646.44
2023-04-12T09:44:04.643Z,98650.63
2023-04-12T09:45:29.395Z,98646.28
2023-04-12T09:46:36.849Z,98645.00
2023-04-12T09:47:43.733Z,98642.06
2023-04-12T09:49:03.874Z,98645.97
2023-04-12T09:50:24.788Z,98643.19
2023-04-12T09:51:38.072Z,98644.63
2023-04-12T09:52:44.157Z,98643.22
2023-04-12T09:53:52.217Z,98634.81
2023-04-12T09:54:58.711Z,98639.44
2023-04-12T09:56:12.458Z,98639.41
2023-04-12T09:57:25.624Z,98637.31
2023-04-12T09:58:44.615Z,98631.56
2023-04-12T10:00:06.932Z,98625.50
2023-04-12T10:01:18.019Z,98626.34
2023-04-12T10:02:30.001Z,98634.78
2023-04-12T10:03:37.145Z,98630.28
2023-04-12T10:04:46.381Z,98624.59
2023-04-12T10:07:28.124Z,98621.06
2023-04-12T10:08:42.930Z,98618.28
2023-04-12T10:09:53.888Z,98623.44
2023-04-12T10:11:17.127Z,98623.59
2023-04-12T10:12:45.819Z,98617.88
2023-04-12T10:13:56.625Z,98615.44
2023-04-12T10:15:13.540Z,98615.34
2023-04-12T10:17:55.210Z,98605.63
2023-04-12T10:19:49.647Z,98613.09
2023-04-12T10:21:04.563Z,98613.50
2023-04-12T10:22:10.877Z,98604.69
2023-04-12T10:23:21.603Z,98603.69
2023-04-12T10:24:29.942Z,98609.03
2023-04-12T10:25:43.999Z,98609.88
2023-04-12T10:26:50.697Z,98611.84
2023-04-12T10:28:08.126Z,98606.22
2023-04-12T10:29:34.729Z,98602.28
2023-04-12T10:30:43.400Z,98594.72
2023-04-12T10:31:49.972Z,98595.28
2023-04-12T10:33:10.171Z,98593.19
2023-04-12T10:34:17.881Z,98600.22
2023-04-12T10:35:32.070Z,98593.88
2023-04-12T10:37:06.970Z,98605.69
2023-04-12T10:38:16.419Z,98594.44
2023-04-12T10:39:48.059Z,98592.50
2023-04-12T10:41:18.824Z,98597.25
2023-04-12T10:42:35.179Z,98594.72
2023-04-12T10:43:44.702Z,98596.97
2023-04-12T10:45:14.599Z,98589.41
2023-04-12T10:47:05.276Z,98600.06
2023-04-12T10:48:52.177Z,98595.56
2023-04-12T10:50:28.077Z,98586.59
2023-04-12T10:51:35.800Z,98588.81
2023-04-12T10:52:46.737Z,98582.53
2023-04-12T10:54:36.353Z,98586.28
2023-04-12T10:55:42.841Z,98576.78
2023-04-12T10:56:48.731Z,98581.56
2023-04-12T10:57:54.719Z,98578.19
2023-04-12T10:59:07.781Z,98580.97
2023-04-12T11:00:13.606Z,98580.44
2023-04-12T11:01:19.108Z,98583.22
2023-04-12T11:02:23.900Z,98581.16
2023-04-12T11:03:30.630Z,98574.25
2023-04-12T11:04:37.406Z,98576.91
2023-04-12T11:06:20.048Z,98583.38
2023-04-12T11:07:50.721Z,98573.41
2023-04-12T11:09:07.642Z,98584.91
2023-04-12T11:10:25.040Z,98580.97
2023-04-12T11:11:39.579Z,98583.78
2023-04-12T11:13:03.174Z,98586.44
2023-04-12T11:14:20.617Z,98582.41
2023-04-12T11:15:37.891Z,98588.97
2023-04-12T11:17:09.104Z,98587.41
2023-04-12T11:18:21.055Z,98584.16
2023-04-12T11:19:29.375Z,98570.75
2023-04-12T11:20:34.546Z,98575.09
2023-04-12T11:21:40.876Z,98571.28
2023-04-12T11:22:45.747Z,98578.16
2023-04-12T11:23:58.808Z,98568.09
2023-04-12T11:25:03.757Z,98577.34
2023-04-12T11:26:11.104Z,98571.44
2023-04-12T11:27:17.133Z,98569.25
2023-04-12T11:28:29.003Z,98567.72
2023-04-12T11:29:38.249Z,98568.16
2023-04-12T11:30:57.770Z,98567.56
2023-04-12T11:32:11.820Z,98564.44
2023-04-12T11:33:37.843Z,98562.81
2023-04-12T11:34:46.864Z,98568.16
2023-04-12T11:35:54.507Z,98565.06
2023-04-12T11:37:00.685Z,98567.47
2023-04-12T11:38:12.345Z,98565.59
2023-04-12T11:39:18.933Z,98562.25
2023-04-12T11:40:23.951Z,98560.53
2023-04-12T11:41:28.454Z,98551.25
2023-04-12T11:42:34.823Z,98561.91
2023-04-12T11:43:42.164Z,98557.44
2023-04-12T11:44:58.417Z,98558.56
2023-04-12T11:46:04.437Z,98555.06
2023-04-12T11:47:25.247Z,98563.06
2023-04-12T11:48:30.262Z,98548.59
2023-04-12T11:49:43.947Z,98550.97
2023-04-12T11:50:59.936Z,98554.31
2023-04-12T11:52:13.536Z,98556.00
2023-04-12T11:53:19.740Z,98552.78
2023-04-12T11:54:31.005Z,98548.56
2023-04-12T11:55:36.030Z,98549.53
2023-04-12T11:56:41.685Z,98544.91
2023-04-12T11:57:56.110Z,98548.56
2023-04-12T11:59:04.337Z,98547.72
2023-04-12T12:00:10.171Z,98546.47
2023-04-12T12:01:16.659Z,98543.13
2023-04-12T12:02:23.856Z,98539.72
2023-04-12T12:03:30.683Z,98544.81
2023-04-12T12:04:43.658Z,98542.84
2023-04-12T12:05:51.465Z,98535.81
2023-04-12T12:06:59.203Z,98533.84
2023-04-12T12:08:08.454Z,98539.31
2023-04-12T12:09:15.072Z,98537.19
2023-04-12T12:10:36.622Z,98544.75
2023-04-12T12:11:45.103Z,98536.22
2023-04-12T12:12:58.955Z,98536.91
2023-04-12T12:14:04.091Z,98531.75
2023-04-12T12:15:09.840Z,98532.47
2023-04-12T12:16:16.128Z,98540.84
2023-04-12T12:17:21.292Z,98534.00
2023-04-12T12:18:29.443Z,98530.50
2023-04-12T12:19:41.874Z,98534.28
2023-04-12T12:20:52.992Z,98524.75
2023-04-12T12:22:29.554Z,98529.09
2023-04-12T12:23:35.817Z,98518.91
2023-04-12T12:24:52.794Z,98522.66
2023-04-12T12:26:17.045Z,98524.75
2023-04-12T12:27:39.769Z,98516.63
2023-04-12T12:28:51.204Z,98514.09
2023-04-12T12:30:05.341Z,98515.94
2023-04-12T12:31:12.808Z,98516.19
2023-04-12T12:32:23.632Z,98507.78
2023-04-12T12:34:00.253Z,98512.13
2023-04-12T12:35:13.183Z,98503.72
2023-04-12T12:36:39.076Z,98515.22
2023-04-12T12:38:04.536Z,98507.09
2023-04-12T12:39:12.193Z,98508.25
2023-04-12T12:40:41.962Z,98510.38
2023-04-12T12:43:23.064Z,98502.78
2023-04-12T12:44:27.530Z,98492.41
2023-04-12T12:45:41.859Z,98496.88
2023-04-12T12:46:53.571Z,98497.31
2023-04-12T12:48:05.278Z,98494.31
2023-04-12T12:49:10.311Z,98487.47
2023-04-12T12:50:17.319Z,98493.47
2023-04-12T12:51:23.540Z,98492.06
2023-04-12T12:52:31.162Z,98485.66
2023-04-12T12:55:12.793Z,98486.19
2023-04-12T12:56:21.612Z,98482.81
2023-04-12T12:57:26.541Z,98475.97
2023-04-12T12:58:32.022Z,98480.63
2023-04-12T12:59:36.430Z,98481.03
2023-04-12T13:00:41.498Z,98485.53
2023-04-12T13:01:45.867Z,98477.94
2023-04-12T13:02:52.795Z,98479.19
2023-04-12T13:03:59.497Z,98476.09
2023-04-12T13:05:08.068Z,98477.50
2023-04-12T13:06:16.270Z,98476.63
2023-04-12T13:07:29.798Z,98481.72
2023-04-12T13:08:45.137Z,98473.84
2023-04-12T13:09:55.210Z,98475.09
2023-04-12T13:11:03.580Z,98473.03
2023-04-12T13:12:16.359Z,98478.34
2023-04-12T13:13:22.970Z,98472.88
2023-04-12T13:14:29.706Z,98476.53
2023-04-12T13:15:34.967Z,98471.47
2023-04-12T13:16:42.795Z,98473.59
2023-04-12T13:17:50.353Z,98472.19
2023-04-12T13:18:55.325Z,98467.69
2023-04-12T13:20:04.414Z,98472.19
2023-04-12T13:21:09.798Z,98469.38
2023-04-12T13:22:15.511Z,98466.84
2023-04-12T13:23:25.786Z,98465.59
2023-04-12T13:24:32.763Z,98470.19
2023-04-12T13:25:36.634Z,98461.50
2023-04-12T13:26:42.054Z,98456.22
2023-04-12T13:27:51.714Z,98458.72
2023-04-12T13:28:57.647Z,98459.28
2023-04-12T13:30:03.404Z,98461.13
2023-04-12T13:31:08.406Z,98461.41
2023-04-12T13:32:14.767Z,98467.13
2023-04-12T13:33:22.904Z,98460.13
2023-04-12T13:34:28.122Z,98453.81
2023-04-12T13:35:34.975Z,98458.03
2023-04-12T13:36:39.908Z,98461.81
2023-04-12T13:37:45.337Z,98456.78
2023-04-12T13:38:51.898Z,98444.16
2023-04-12T13:39:58.779Z,98454.41
2023-04-12T13:41:11.814Z,98448.09
2023-04-12T13:42:17.709Z,98458.31
2023-04-12T13:43:23.238Z,98453.38
2023-04-12T13:44:30.537Z,98448.63
2023-04-12T13:45:39.271Z,98457.03
2023-04-12T13:46:46.752Z,98451.00
2023-04-12T13:48:01.011Z,98447.06
2023-04-12T13:49:09.004Z,98452.25
2023-04-12T13:51:51.645Z,98449.31
2023-04-12T13:53:11.293Z,98448.91
2023-04-12T13:54:18.747Z,98452.69
2023-04-12T13:55:26.426Z,98450.31
2023-04-12T13:56:31.934Z,98452.84
2023-04-12T13:57:49.835Z,98450.56
2023-04-12T13:58:55.706Z,98451.41
2023-04-12T14:00:01.353Z,98449.75
2023-04-12T14:01:10.853Z,98449.19
2023-04-12T14:02:15.715Z,98443.56
2023-04-12T14:03:21.460Z,98445.28
2023-04-12T14:04:29.673Z,98446.09
2023-04-12T14:05:35.630Z,98450.19
2023-04-12T14:06:44.540Z,98448.34
2023-04-12T14:07:50.790Z,98448.78
2023-04-12T14:09:02.666Z,98446.09
2023-04-12T14:10:09.749Z,98446.94
2023-04-12T14:11:17.436Z,98438.81